Time;durP1;ratioP1;P1;durP2;ratioP2;P2;SDS_P1;SDS_P2;PMS_P1;PMS_P2;Temp;Humidity;BMP_temperature;BMP_pressure;BME280_temperature;BME280_humidity;BME280_pressure;Samples;Min_cycle;Max_cycle;Signal;HPM_P1;HPM_P2
2022/04/05 00:00:51;;;;;;;9.27;6.95;;;10.10;87.00;;;7.69;77.43;99967.78;5025109;28;20133;-77
2022/04/05 00:03:18;;;;;;;8.00;6.53;;;8.20;85.90;;;7.77;77.90;99963.22;5008679;28;20139;-78
2022/04/05 00:05:45;;;;;;;11.13;8.45;;;8.30;86.30;;;7.68;79.31;99975.63;5015857;28;20096;-78
2022/04/05 00:08:15;;;;;;;9.35;6.35;;;8.20;86.30;;;7.71;79.89;99941.53;5010421;28;20510;-77
2022/04/05 00:10:43;;;;;;;8.23;6.38;;;8.20;86.60;;;7.65;81.31;99953.00;5027492;28;20056;-78
2022/04/05 00:13:10;;;;;;;7.97;6.20;;;8.20;87.00;;;7.64;81.75;99951.25;5007113;28;20049;-77
2022/04/05 00:15:37;;;;;;;9.80;6.60;;;8.20;87.20;;;7.64;82.56;99922.47;5008096;28;20060;-77
2022/04/05 00:18:04;;;;;;;13.07;7.55;;;8.80;87.90;;;7.65;82.81;99926.84;5012779;28;20041;-78
2022/04/05 00:20:31;;;;;;;7.55;6.57;;;8.70;88.00;;;7.63;84.02;99936.44;5006656;28;20100;-76
2022/04/05 00:22:58;;;;;;;7.63;6.30;;;8.10;88.00;;;7.59;84.42;99971.44;4991910;28;20046;-77
2022/04/05 00:25:26;;;;;;;14.65;6.97;;;8.10;88.20;;;7.58;83.99;99931.31;5007761;28;20057;-76
2022/04/05 00:27:53;;;;;;;9.68;7.38;;;8.50;88.50;;;7.56;84.17;99958.41;5025880;28;20046;-77
2022/04/05 00:30:20;;;;;;;10.02;6.85;;;8.20;88.40;;;7.62;83.09;99930.38;4993145;28;20415;-78
2022/04/05 00:32:47;;;;;;;8.38;6.18;;;10.20;89.70;;;7.57;83.63;99923.47;5008588;28;20464;-76
2022/04/05 00:35:14;;;;;;;10.10;6.00;;;8.20;88.60;;;7.60;82.73;99923.41;5007830;28;20060;-77
2022/04/05 00:37:41;;;;;;;9.07;6.32;;;8.40;88.50;;;7.61;82.08;99943.47;5007181;28;20427;-79
2022/04/05 00:40:09;;;;;;;7.82;6.60;;;10.40;89.60;;;7.59;83.06;99927.81;5008311;28;20050;-77
2022/04/05 00:42:36;;;;;;;9.77;6.97;;;8.20;88.40;;;7.60;81.56;99946.97;5011302;28;20041;-77
2022/04/05 00:45:09;;;;;;;10.73;7.35;;;8.10;88.20;;;7.59;81.58;99942.63;5009277;28;20128;-77
2022/04/05 00:47:37;;;;;;;8.45;6.82;;;8.20;88.10;;;7.58;82.41;99941.78;5015926;28;20053;-77
2022/04/05 00:50:06;;;;;;;7.15;6.45;;;8.00;88.30;;;7.61;82.29;99926.03;5017484;28;20037;-78
2022/04/05 00:52:33;;;;;;;10.02;6.93;;;8.00;88.40;;;7.59;81.99;99900.75;5013046;28;20535;-76
2022/04/05 00:55:01;;;;;;;7.35;5.95;;;10.60;89.90;;;7.55;81.84;99933.97;5007033;28;20103;-77
2022/04/05 00:57:31;;;;;;;7.68;6.55;;;8.10;88.30;;;7.57;81.27;99903.41;4992628;28;20506;-77
2022/04/05 01:00:06;;;;;;;9.68;6.55;;;8.10;88.30;;;7.56;82.44;99892.97;5012039;28;20685;-79
2022/04/05 01:02:37;;;;;;;8.43;6.57;;;8.10;88.50;;;7.55;81.79;99889.47;5008046;28;20042;-77
2022/04/05 01:05:07;;;;;;;8.15;6.78;;;9.70;89.30;;;7.63;81.05;99895.44;5014724;28;20092;-77
2022/04/05 01:07:39;;;;;;;8.10;6.75;;;8.00;88.40;;;7.60;81.08;99897.22;5007406;28;20057;-77
2022/04/05 01:10:07;;;;;;;11.32;7.03;;;8.70;88.70;;;7.64;80.50;99901.50;5014916;28;20144;-78
2022/04/05 01:12:34;;;;;;;7.93;6.05;;;8.20;88.40;;;7.65;80.86;99903.25;5017715;28;20049;-78
2022/04/05 01:15:01;;;;;;;8.60;7.05;;;8.70;88.80;;;7.61;81.21;99897.22;5016829;28;20045;-78
2022/04/05 01:17:29;;;;;;;11.73;6.50;;;8.70;88.80;;;7.62;82.38;99919.00;5035799;28;20752;-78
2022/04/05 01:19:56;;;;;;;7.25;6.38;;;8.10;88.80;;;7.60;82.12;99905.09;5019171;28;20742;-78
2022/04/05 01:22:23;;;;;;;9.52;6.93;;;8.10;88.80;;;7.52;83.24;99897.38;4990556;28;20042;-77
2022/04/05 01:24:51;;;;;;;12.38;7.13;;;9.20;89.70;;;7.54;83.38;99947.94;5006509;28;20040;-78
2022/04/05 01:27:19;;;;;;;10.65;7.45;;;8.00;89.10;;;7.52;83.68;99898.25;5006850;28;20041;-77
2022/04/05 01:29:47;;;;;;;8.20;6.43;;;10.30;90.20;;;7.57;83.64;99913.00;5006994;28;20049;-77
2022/04/05 01:32:15;;;;;;;9.75;5.97;;;8.80;89.70;;;7.52;84.09;99928.78;5006505;28;20054;-77
2022/04/05 01:34:42;;;;;;;8.40;6.40;;;8.60;89.80;;;7.50;85.07;99902.66;5008998;28;20041;-77
2022/04/05 01:37:11;;;;;;;9.93;6.93;;;8.10;89.90;;;7.52;85.57;99919.19;5015703;28;20502;-78
2022/04/05 01:39:40;;;;;;;14.25;8.77;;;8.00;90.00;;;7.48;87.27;99929.75;5010903;28;20061;-76
2022/04/05 01:42:12;;;;;;;9.55;6.60;;;8.60;90.20;;;7.51;87.21;99929.69;5007023;28;20491;-78
2022/04/05 01:44:41;;;;;;;8.27;6.55;;;9.50;90.50;;;7.48;87.66;99929.75;5007819;28;20092;-77
2022/04/05 01:47:14;;;;;;;11.55;7.63;;;8.40;90.40;;;7.48;88.08;99898.34;5006382;28;20136;-77
2022/04/05 01:49:44;;;;;;;8.95;7.10;;;8.00;90.30;;;7.43;88.42;99905.44;5015658;28;20042;-78
2022/04/05 01:52:12;;;;;;;13.30;8.13;;;9.00;90.70;;;7.42;88.73;99882.75;5015926;28;20105;-77
2022/04/05 01:54:39;;;;;;;11.30;8.15;;;8.00;90.50;;;7.46;88.24;99868.72;5016118;28;20046;-77
2022/04/05 01:57:07;;;;;;;7.97;6.28;;;8.00;90.50;;;7.48;87.94;99878.25;4993449;28;20041;-78
2022/04/05 01:59:37;;;;;;;12.07;6.30;;;7.90;90.50;;;7.50;88.33;99873.00;5026567;28;20057;-78
2022/04/05 02:02:07;;;;;;;13.73;7.07;;;8.00;90.50;;;7.52;88.05;99879.06;5010019;28;20042;-77
2022/04/05 02:04:35;;;;;;;8.25;6.07;;;8.00;90.60;;;7.52;87.85;99890.41;5009174;28;20053;-78
2022/04/05 02:07:13;;;;;;;7.40;6.38;;;9.50;91.00;;;7.52;86.91;99953.25;5012574;28;20037;-77
2022/04/05 02:09:40;;;;;;;11.20;7.75;;;8.00;90.50;;;7.57;86.27;99916.50;5011807;28;20069;-76
2022/04/05 02:12:09;;;;;;;7.95;6.40;;;8.00;90.70;;;7.59;84.98;99917.34;5026163;28;20141;-78
2022/04/05 02:14:51;;;;;;;9.23;6.70;;;8.10;90.40;;;7.58;84.43;99870.22;4991645;28;20049;-77
2022/04/05 02:17:25;;;;;;;8.43;6.35;;;8.00;90.20;;;7.59;84.58;99900.75;4991141;28;20066;-77
2022/04/05 02:19:56;;;;;;;7.65;6.57;;;8.80;90.40;;;7.55;84.58;99902.56;4991878;28;20090;-78
2022/04/05 02:22:25;;;;;;;10.48;6.55;;;8.60;90.30;;;7.60;83.68;99892.00;4991621;28;20050;-77
2022/04/05 02:24:56;;;;;;;8.20;6.72;;;9.80;90.60;;;7.59;83.67;99909.47;4995378;28;20046;-78
2022/04/05 02:27:31;;;;;;;10.00;6.70;;;8.40;90.20;;;7.61;83.46;99902.44;5006418;28;20129;-78
2022/04/05 02:29:58;;;;;;;9.48;6.72;;;8.50;90.20;;;7.60;83.60;99884.13;4990638;28;20414;-78
2022/04/05 02:32:25;;;;;;;9.57;6.80;;;9.00;90.30;;;7.59;82.62;99891.16;4990211;28;20054;-77
2022/04/05 02:34:54;;;;;;;8.15;6.38;;;8.10;90.00;;;7.58;82.77;99888.56;4990862;28;20059;-77
2022/04/05 02:37:22;;;;;;;8.10;5.75;;;8.10;90.20;;;7.56;84.08;99885.94;4991455;28;20050;-78
2022/04/05 02:39:53;;;;;;;11.27;6.93;;;8.10;90.20;;;7.57;85.15;99919.13;4992667;28;20073;-76
2022/04/05 02:42:21;;;;;;;9.10;6.57;;;8.50;90.50;;;7.62;86.69;99909.41;4993962;28;20061;-78
2022/04/05 02:44:48;;;;;;;9.48;6.28;;;8.10;90.50;;;7.55;87.25;99907.78;5005581;28;20046;-76
2022/04/05 02:47:17;;;;;;;8.45;5.95;;;9.30;90.90;;;7.55;88.05;99915.66;5005002;28;20499;-77
2022/04/05 02:49:49;;;;;;;8.77;5.78;;;8.00;90.70;;;7.54;89.84;99906.06;4990278;28;20062;-77
2022/04/05 02:52:23;;;;;;;9.93;6.78;;;8.00;90.90;;;7.45;91.72;99928.03;4989340;28;20152;-77
2022/04/05 02:54:55;;;;;;;8.75;6.82;;;8.10;91.20;;;7.43;92.55;99915.91;4989670;28;20085;-77
2022/04/05 02:57:24;;;;;;;8.80;7.10;;;10.00;91.80;;;7.37;94.90;99915.09;4989617;28;20133;-77
2022/04/05 02:59:56;;;;;;;9.90;6.85;;;8.00;91.50;;;7.42;94.53;99916.78;4989877;28;20050;-77
2022/04/05 03:02:24;;;;;;;9.45;7.65;;;8.40;91.70;;;7.34;97.52;99909.06;4973682;28;20046;-77
2022/04/05 03:04:51;;;;;;;11.88;8.35;;;9.40;92.30;;;7.40;97.35;99922.03;4989689;28;20053;-78
2022/04/05 03:07:19;;;;;;;8.52;6.32;;;7.90;92.10;;;7.38;100.00;99922.06;4990837;28;20043;-77
2022/04/05 03:09:47;;;;;;;9.02;6.88;;;7.90;92.60;;;7.33;100.00;99913.44;4999410;28;20046;-77
2022/04/05 03:12:18;;;;;;;8.70;6.25;;;7.90;92.80;;;7.29;100.00;99942.28;4994999;28;20076;-77
2022/04/05 03:14:48;;;;;;;;;;;7.90;93.40;;;7.26;100.00;99903.97;5015160;28;20050;-78
2022/04/05 03:17:17;;;;;;;11.35;7.35;;;8.80;95.40;;;7.17;100.00;99918.06;5018428;28;19922;-78
2022/04/05 03:19:44;;;;;;;10.70;7.75;;;8.00;95.70;;;7.08;100.00;99924.31;4999093;28;20132;-76
2022/04/05 03:22:11;;;;;;;9.32;6.60;;;7.60;95.90;;;7.04;100.00;99909.56;5008631;28;20050;-78
2022/04/05 03:24:38;;;;;;;9.60;7.53;;;8.20;96.10;;;7.04;100.00;99909.56;5009282;28;20049;-78
2022/04/05 03:27:06;;;;;;;9.55;6.88;;;8.00;95.80;;;7.04;100.00;99921.78;5008519;28;20048;-77
2022/04/05 03:29:34;;;;;;;8.90;7.32;;;7.80;95.70;;;6.97;100.00;99909.69;4992674;28;20054;-77
2022/04/05 03:32:02;;;;;;;11.50;6.80;;;7.60;95.60;;;6.98;100.00;99914.91;5008352;28;20388;-77
2022/04/05 03:34:30;;;;;;;11.43;7.95;;;7.60;95.80;;;6.96;100.00;99914.06;5010122;28;20050;-78
2022/04/05 03:36:58;;;;;;;14.88;9.02;;;7.50;95.90;;;7.01;100.00;99904.38;5001314;28;20133;-78
2022/04/05 03:39:25;;;;;;;8.48;7.32;;;7.50;96.00;;;6.98;100.00;99895.72;5011125;28;20054;-78
2022/04/05 03:41:53;;;;;;;8.15;7.10;;;9.60;96.70;;;6.95;100.00;99913.19;5014580;28;20064;-76
2022/04/05 03:44:21;;;;;;;9.88;7.53;;;7.50;96.30;;;6.91;100.00;99911.53;5011341;28;20038;-78
2022/04/05 03:46:49;;;;;;;10.07;8.18;;;7.50;96.50;;;6.82;100.00;99901.19;5015458;28;20480;-77
2022/04/05 03:49:18;;;;;;;8.40;7.22;;;7.50;96.80;;;6.88;100.00;99898.50;5010584;28;20081;-78
2022/04/05 03:51:52;;;;;;;9.02;7.15;;;8.50;97.20;;;6.85;100.00;99911.59;5009842;28;20091;-78
2022/04/05 03:54:20;;;;;;;16.58;10.82;;;7.50;97.30;;;6.84;100.00;99914.28;5031531;28;20095;-78
2022/04/05 03:56:47;;;;;;;17.02;9.05;;;7.40;97.40;;;6.88;100.00;99913.31;5009351;28;20740;-78
2022/04/05 03:59:14;;;;;;;11.32;7.68;;;7.30;97.60;;;6.77;100.00;99916.13;5008423;28;20052;-77
2022/04/05 04:01:41;;;;;;;12.95;9.00;;;9.10;98.30;;;6.73;100.00;99915.28;5001823;28;20526;-77
2022/04/05 04:04:10;;;;;;;12.75;9.15;;;8.70;98.50;;;6.76;100.00;99927.47;4988456;28;20042;-77
2022/04/05 04:06:38;;;;;;;13.77;8.73;;;7.30;98.30;;;6.78;100.00;99918.69;4982101;28;20057;-78
2022/04/05 04:09:05;;;;;;;16.60;10.70;;;8.10;98.60;;;6.77;100.00;99923.97;4982291;28;20046;-78
2022/04/05 04:11:33;;;;;;;16.17;10.32;;;7.30;98.60;;;6.72;100.00;99921.41;5002312;28;20049;-77
2022/04/05 04:14:00;;;;;;;13.70;8.80;;;8.50;99.20;;;6.62;100.00;99945.94;5007589;28;20130;-77
2022/04/05 04:16:29;;;;;;;16.88;10.65;;;7.20;99.20;;;6.61;100.00;99939.00;5012727;28;20100;-79
2022/04/05 04:18:57;;;;;;;14.43;8.95;;;7.10;99.20;;;6.57;100.00;99932.97;5029200;28;20049;-77
2022/04/05 04:21:27;;;;;;;11.13;9.52;;;7.20;99.40;;;6.52;100.00;99934.75;4994897;28;20038;-78
2022/04/05 04:23:55;;;;;;;12.85;7.70;;;7.10;99.60;;;6.46;100.00;99932.25;4999694;28;20042;-78
2022/04/05 04:26:22;;;;;;;11.48;8.35;;;8.40;99.90;;;6.47;100.00;99924.38;5010210;28;20107;-77
2022/04/05 04:29:02;;;;;;;9.57;7.47;;;8.50;99.90;;;6.47;100.00;99931.38;5025323;28;20069;-76
2022/04/05 04:31:29;;;;;;;11.77;8.13;;;9.00;99.90;;;6.49;100.00;99933.06;4996597;28;20196;-76
2022/04/05 04:33:56;;;;;;;12.48;7.32;;;8.90;99.90;;;6.49;100.00;99947.88;4996621;28;20058;-77
2022/04/05 04:36:23;;;;;;;9.75;7.30;;;7.00;99.90;;;6.39;100.00;99928.84;4995866;28;20611;-78
2022/04/05 04:38:52;;;;;;;12.60;6.97;;;7.00;99.90;;;6.36;100.00;99924.53;5010972;28;20440;-77
2022/04/05 04:41:22;;;;;;;10.23;6.53;;;7.00;99.90;;;6.42;100.00;99943.63;5010762;28;20046;-75
2022/04/05 04:43:52;;;;;;;10.23;7.38;;;6.90;99.90;;;6.39;100.00;99941.94;5009813;28;20048;-76
2022/04/05 04:46:19;;;;;;;;;;;7.00;99.90;;;6.32;100.00;99948.09;5022707;28;20705;-77
2022/04/05 04:48:47;;;;;;;8.35;7.22;;;7.00;99.90;;;6.33;100.00;99945.47;5010976;28;19925;-77
2022/04/05 04:51:14;;;;;;;8.48;7.20;;;6.90;99.90;;;6.15;100.00;99938.72;4997723;28;20053;-77
2022/04/05 04:53:41;;;;;;;12.52;8.10;;;6.80;99.90;;;6.23;100.00;99938.63;5018161;28;20048;-77
2022/04/05 04:56:08;;;;;;;11.60;8.32;;;6.90;99.90;;;6.25;100.00;99929.06;5011575;28;20077;-78
2022/04/05 04:58:37;;;;;;;12.85;8.18;;;6.80;99.90;;;6.18;100.00;99936.09;5020345;28;20092;-76
2022/04/05 05:01:05;;;;;;;12.20;7.22;;;6.90;99.90;;;6.21;100.00;99937.78;5025923;28;20041;-78
2022/04/05 05:03:32;;;;;;;10.65;7.65;;;7.40;99.90;;;6.20;100.00;99952.63;5004722;28;20046;-77
2022/04/05 05:05:59;;;;;;;12.82;7.85;;;6.90;99.90;;;6.16;100.00;99963.97;5006622;28;20048;-77
2022/04/05 05:08:27;;;;;;;10.77;8.52;;;7.30;99.90;;;6.20;100.00;99944.78;5005411;28;20038;-76
2022/04/05 05:10:54;;;;;;;11.93;9.00;;;7.70;99.90;;;6.19;100.00;99948.28;5005407;28;20046;-76
2022/04/05 05:13:21;;;;;;;10.45;7.72;;;6.60;99.90;;;6.20;100.00;99950.00;5007155;28;20080;-76
2022/04/05 05:15:50;;;;;;;15.57;7.80;;;6.80;99.90;;;6.17;100.00;99950.06;5007368;28;20050;-76
2022/04/05 05:18:17;;;;;;;21.85;9.48;;;6.80;99.90;;;6.23;100.00;99954.31;5008004;28;20129;-78
2022/04/05 05:20:44;;;;;;;11.18;7.78;;;6.80;99.90;;;6.15;100.00;99953.56;5010243;28;20049;-78
2022/04/05 05:23:11;;;;;;;11.10;8.05;;;7.10;99.90;;;6.18;100.00;99956.13;5009848;28;20415;-79
2022/04/05 05:25:38;;;;;;;12.35;8.57;;;6.80;99.90;;;6.07;100.00;99941.44;5010452;28;20030;-77
2022/04/05 05:28:06;;;;;;;9.30;7.63;;;6.70;99.90;;;6.11;100.00;99950.13;5009577;28;20630;-79
2022/04/05 05:30:33;;;;;;;12.10;7.03;;;6.80;99.90;;;6.09;100.00;99960.59;5011137;28;20088;-77
2022/04/05 05:33:01;;;;;;;8.98;7.45;;;6.70;99.90;;;6.06;100.00;99937.09;5012853;28;20734;-76
2022/04/05 05:35:28;;;;;;;9.35;7.45;;;8.90;99.90;;;6.07;100.00;99932.75;5011834;28;20046;-76
2022/04/05 05:37:59;;;;;;;11.77;8.32;;;6.70;99.90;;;6.10;100.00;99937.94;5010497;28;20673;-77
2022/04/05 05:40:26;;;;;;;10.57;8.35;;;7.00;99.90;;;6.02;100.00;99943.25;5011792;28;20042;-78
2022/04/05 05:42:58;;;;;;;11.07;8.15;;;6.60;99.90;;;6.07;100.00;99949.28;5013186;28;20073;-77
2022/04/05 05:45:27;;;;;;;11.10;8.25;;;6.60;99.90;;;6.08;100.00;99951.00;5014084;28;20038;-77
2022/04/05 05:47:55;;;;;;;10.65;8.52;;;6.60;99.90;;;6.13;100.00;99957.94;5011965;28;20042;-76
2022/04/05 05:50:23;;;;;;;9.15;8.05;;;7.40;99.90;;;6.06;100.00;99959.75;5013040;28;20038;-77
2022/04/05 05:52:50;;;;;;;8.60;7.63;;;6.60;99.90;;;6.04;100.00;99951.09;5014165;28;20069;-77
2022/04/05 05:55:19;;;;;;;11.68;7.20;;;6.70;99.90;;;6.07;100.00;99964.94;5014861;28;20049;-77
2022/04/05 05:57:48;;;;;;;10.77;7.70;;;6.60;99.90;;;6.08;100.00;99974.50;5008936;28;20046;-77
2022/04/05 06:00:21;;;;;;;9.38;7.63;;;6.60;99.90;;;6.04;100.00;99958.91;4991785;28;20603;-77
2022/04/05 06:02:52;;;;;;;12.93;8.07;;;6.60;99.90;;;6.07;100.00;99956.25;5008113;28;20054;-77
2022/04/05 06:05:20;;;;;;;8.45;7.47;;;8.30;99.90;;;6.08;100.00;99966.69;5007889;28;20050;-77
2022/04/05 06:07:47;;;;;;;10.52;7.50;;;6.60;99.90;;;6.13;100.00;99950.97;5007418;28;20046;-76
2022/04/05 06:10:14;;;;;;;9.93;8.05;;;6.90;99.90;;;6.07;100.00;99951.03;5007038;28;20050;-76
2022/04/05 06:12:45;;;;;;;9.85;7.22;;;6.70;99.90;;;6.09;100.00;99967.56;4975849;28;20129;-78
2022/04/05 06:15:14;;;;;;;8.75;7.28;;;6.70;99.90;;;6.07;100.00;99975.41;4993711;28;20057;-76
2022/04/05 06:17:44;;;;;;;8.82;7.43;;;6.70;99.90;;;6.09;100.00;99971.06;5010107;28;20176;-78
2022/04/05 06:20:13;;;;;;;;;;;7.70;99.90;;;6.07;100.00;99987.59;5011242;28;20464;-77
2022/04/05 06:22:53;;;;;;;12.65;8.32;;;6.60;99.90;;;6.02;100.00;99978.97;5012368;28;20346;-78
2022/04/05 06:25:35;;;;;;;9.32;7.65;;;6.60;99.90;;;6.00;100.00;99980.69;5013548;28;20034;-78
2022/04/05 06:28:06;;;;;;;10.27;7.88;;;6.60;99.90;;;6.00;100.00;99989.38;5015780;28;20073;-79
2022/04/05 06:30:37;;;;;;;11.48;8.18;;;6.60;99.90;;;6.01;100.00;99998.06;4982282;28;20475;-77
2022/04/05 06:33:17;;;;;;;11.25;8.93;;;6.60;99.90;;;6.00;100.00;99996.34;5015754;28;20555;-77
2022/04/05 06:35:52;;;;;;;9.93;8.05;;;6.50;99.90;;;6.04;100.00;99998.09;5022884;28;20049;-79
2022/04/05 06:38:19;;;;;;;9.82;7.40;;;6.60;99.90;;;5.99;100.00;99987.66;5016121;28;20050;-80
2022/04/05 06:40:47;;;;;;;8.40;7.30;;;6.60;99.90;;;6.03;100.00;99991.16;5011198;28;20052;-78
2022/04/05 06:43:16;;;;;;;10.27;7.45;;;6.60;99.90;;;6.04;100.00;99995.50;4995575;28;20057;-78
2022/04/05 06:45:44;;;;;;;13.57;9.27;;;6.60;99.90;;;6.00;100.00;99996.34;4993990;28;20535;-77
2022/04/05 06:48:11;;;;;;;11.00;8.45;;;6.50;99.90;;;6.04;100.00;99985.03;5011142;28;20049;-78
2022/04/05 06:50:42;;;;;;;10.77;7.50;;;6.60;99.90;;;6.05;100.00;99982.38;5011256;28;20049;-78
2022/04/05 06:53:10;;;;;;;10.68;8.32;;;6.60;99.90;;;6.05;100.00;99984.16;4993329;28;20074;-77
2022/04/05 06:55:38;;;;;;;10.60;7.30;;;6.70;99.90;;;5.98;100.00;99993.78;5013620;28;20073;-78
2022/04/05 06:58:06;;;;;;;9.70;7.28;;;7.10;99.90;;;6.00;100.00;99993.72;4999103;28;20065;-78
2022/04/05 07:00:35;;;;;;;13.65;8.57;;;6.60;99.90;;;6.00;100.00;99976.34;5014385;28;20046;-77
2022/04/05 07:03:02;;;;;;;10.80;8.10;;;6.70;99.90;;;6.03;100.00;99983.31;5012210;28;20404;-77
2022/04/05 07:05:30;;;;;;;11.07;8.48;;;6.30;99.90;;;5.97;100.00;99977.22;5007638;28;20108;-75
2022/04/05 07:07:57;;;;;;;10.88;8.77;;;6.60;99.90;;;5.99;100.00;99977.22;5008653;28;20049;-77
2022/04/05 07:10:25;;;;;;;11.77;8.93;;;6.90;99.90;;;6.02;100.00;99979.81;5009443;28;20041;-77
2022/04/05 07:12:52;;;;;;;12.63;9.23;;;6.60;99.90;;;5.99;100.00;99973.72;5025638;28;20766;-78
2022/04/05 07:15:19;;;;;;;11.10;8.45;;;6.60;99.90;;;5.90;100.00;99992.97;5009152;28;20046;-76
2022/04/05 07:17:46;;;;;;;14.95;9.27;;;6.60;99.90;;;5.88;100.00;99982.56;5028444;28;20069;-76
2022/04/05 07:20:32;;;;;;;11.07;8.23;;;7.90;99.90;;;5.93;100.00;99985.97;5013582;28;20045;-78
2022/04/05 07:22:59;;;;;;;10.60;8.82;;;6.60;99.90;;;5.90;100.00;100003.41;5012903;28;20072;-78
2022/04/05 07:25:26;;;;;;;10.48;8.55;;;6.60;99.90;;;5.84;100.00;99990.44;4997231;28;20113;-79
2022/04/05 07:27:53;;;;;;;10.07;8.95;;;6.10;99.90;;;5.91;100.00;99995.59;5027185;28;20458;-78
2022/04/05 07:30:21;;;;;;;13.65;9.27;;;6.60;99.90;;;5.91;100.00;99985.13;5025135;28;20056;-76
2022/04/05 07:32:48;;;;;;;9.73;8.00;;;6.50;99.90;;;5.96;100.00;100003.38;5010362;28;20428;-76
2022/04/05 07:35:17;;;;;;;11.52;9.32;;;6.60;99.90;;;5.93;100.00;99988.59;5009826;28;20050;-77
2022/04/05 07:37:45;;;;;;;12.50;9.52;;;6.60;99.90;;;5.94;100.00;99992.09;5006796;28;20050;-75
2022/04/05 07:40:13;;;;;;;18.77;9.65;;;6.80;99.90;;;6.02;100.00;99982.44;4992057;28;20050;-75
2022/04/05 07:42:43;;;;;;;10.57;8.75;;;6.50;99.90;;;6.27;100.00;100000.44;5008279;28;20058;-76
2022/04/05 07:45:12;;;;;;;;;;;6.80;99.90;;;6.26;100.00;99984.78;4993009;28;20123;-75
2022/04/05 07:47:40;;;;;;;9.45;7.63;;;7.30;99.90;;;6.28;100.00;99975.16;5011214;28;19941;-76
2022/04/05 07:50:09;;;;;;;11.98;8.68;;;8.50;99.90;;;6.27;100.00;99976.03;4994644;28;20168;-78
2022/04/05 07:52:36;;;;;;;16.55;8.63;;;6.80;99.90;;;6.21;100.00;99983.09;5009397;28;20137;-77
2022/04/05 07:55:04;;;;;;;11.60;8.10;;;6.80;99.90;;;6.27;100.00;99989.09;4992852;28;20042;-77
2022/04/05 07:57:31;;;;;;;9.65;8.65;;;6.90;99.90;;;6.24;100.00;99976.94;5016600;28;20049;-77
2022/04/05 07:59:59;;;;;;;11.88;9.15;;;7.90;99.90;;;6.28;100.00;99983.00;4996776;28;20062;-79
2022/04/05 08:02:26;;;;;;;9.60;8.38;;;6.90;99.90;;;6.23;100.00;99969.97;5008948;28;20053;-78
2022/04/05 08:05:00;;;;;;;13.43;9.07;;;6.90;99.90;;;6.25;100.00;99976.09;5009122;28;20077;-78
2022/04/05 08:07:27;;;;;;;13.05;8.63;;;7.40;99.90;;;6.31;100.00;99968.16;5010001;28;20073;-77
2022/04/05 08:09:54;;;;;;;11.73;9.48;;;8.40;99.90;;;6.35;100.00;100011.66;5009111;28;20096;-78
2022/04/05 08:12:21;;;;;;;11.13;8.23;;;6.90;99.90;;;6.35;100.00;99980.28;5009789;28;20447;-77
2022/04/05 08:14:48;;;;;;;11.82;9.13;;;7.40;99.90;;;6.44;100.00;99978.44;5010270;28;20050;-75
2022/04/05 08:17:15;;;;;;;11.18;8.45;;;7.00;99.90;;;6.50;100.00;99981.84;5026534;28;20085;-78
2022/04/05 08:19:42;;;;;;;11.98;7.95;;;7.10;99.90;;;6.42;100.00;99978.47;5027071;28;20056;-78
2022/04/05 08:22:09;;;;;;;12.70;8.32;;;7.50;99.90;;;6.43;100.00;100001.09;5010609;28;20718;-77
2022/04/05 08:24:36;;;;;;;12.05;9.25;;;7.00;99.90;;;6.47;100.00;100004.53;5024337;28;20042;-77
2022/04/05 08:27:03;;;;;;;12.07;9.38;;;7.10;99.90;;;6.54;100.00;99995.72;5012105;28;20113;-78
2022/04/05 08:29:30;;;;;;;12.15;9.25;;;7.20;99.90;;;6.55;100.00;99992.22;5011197;28;20376;-78
2022/04/05 08:31:58;;;;;;;12.57;8.48;;;7.10;99.90;;;6.65;100.00;99982.53;5010627;28;20095;-78
2022/04/05 08:34:25;;;;;;;14.05;9.07;;;7.70;99.90;;;6.67;100.00;100010.34;5009194;28;20061;-78
2022/04/05 08:36:53;;;;;;;12.63;8.80;;;7.20;99.90;;;6.72;100.00;99985.94;5010778;28;20052;-78
2022/04/05 08:39:20;;;;;;;13.02;8.27;;;7.30;99.90;;;6.65;100.00;99982.53;5012748;28;20049;-78
2022/04/05 08:41:48;;;;;;;11.05;7.63;;;7.70;99.90;;;6.66;100.00;99986.88;4996404;28;20439;-78
2022/04/05 08:44:33;;;;;;;11.88;7.90;;;7.70;99.90;;;6.69;100.00;100005.13;5009675;28;20104;-79
2022/04/05 08:47:04;;;;;;;15.23;8.20;;;7.20;99.90;;;6.81;100.00;99993.63;4993427;28;20414;-78
2022/04/05 08:49:32;;;;;;;10.73;7.90;;;7.30;99.90;;;6.82;100.00;99987.50;5008872;28;20120;-78
2022/04/05 08:51:59;;;;;;;10.00;7.60;;;7.40;99.90;;;6.89;100.00;99986.53;4994490;28;20499;-79
2022/04/05 08:54:26;;;;;;;13.45;8.25;;;7.40;99.90;;;6.95;100.00;99982.97;5012620;28;20117;-78
2022/04/05 08:56:53;;;;;;;16.35;8.30;;;7.50;99.90;;;7.01;100.00;100001.19;4977613;28;20060;-78
2022/04/05 08:59:20;;;;;;;12.05;7.97;;;7.50;99.90;;;6.95;100.00;99996.03;5007903;28;20670;-77
2022/04/05 09:01:49;;;;;;;13.60;9.05;;;7.60;99.90;;;7.09;100.00;99986.22;4991678;28;20077;-77
2022/04/05 09:04:16;;;;;;;15.02;8.52;;;7.60;99.90;;;7.18;100.00;99987.84;4991683;28;20045;-79
2022/04/05 09:07:31;;;;;;;11.27;7.85;;;7.60;99.90;;;7.15;100.00;99976.56;4993082;28;20037;-78
2022/04/05 09:10:11;;;;;;;11.93;7.68;;;7.70;99.90;;;7.14;100.00;99998.38;5007999;28;20553;-78
2022/04/05 09:12:49;;;;;;;11.25;8.30;;;7.60;99.90;;;7.17;100.00;99982.63;5008378;28;20048;-80
2022/04/05 09:15:16;;;;;;;9.07;7.35;;;7.70;99.90;;;7.15;100.00;99976.56;5012954;28;20085;-78
2022/04/05 09:17:46;;;;;;;7.78;6.97;;;7.70;99.90;;;7.12;100.00;99977.47;4991547;28;20142;-78
2022/04/05 09:20:17;;;;;;;9.00;7.88;;;9.60;99.90;;;7.16;100.00;99994.81;4988722;28;20500;-78
2022/04/05 09:22:45;;;;;;;11.02;8.23;;;7.60;99.90;;;7.04;100.00;99992.44;4992191;28;20112;-78
2022/04/05 09:25:17;;;;;;;10.02;8.10;;;9.00;99.90;;;7.13;100.00;99979.19;4992193;28;20054;-79
2022/04/05 09:27:55;;;;;;;11.95;9.30;;;8.20;99.90;;;7.29;100.00;99986.78;4972773;28;20058;-77
2022/04/05 09:30:28;;;;;;;11.77;8.25;;;7.70;99.90;;;7.34;100.00;99971.88;4988823;28;20042;-78
2022/04/05 09:32:57;;;;;;;10.95;8.35;;;7.90;99.90;;;7.45;100.00;99974.31;4987303;28;20050;-77
2022/04/05 09:35:43;;;;;;;9.88;7.82;;;7.90;99.90;;;7.34;100.00;99977.97;4971826;28;20084;-78
2022/04/05 09:38:17;;;;;;;15.05;8.30;;;7.80;99.90;;;7.37;100.00;99969.22;4993345;28;20038;-77
2022/04/05 09:40:44;;;;;;;13.77;9.07;;;7.90;99.90;;;7.47;100.00;99977.75;4991821;28;20513;-77
2022/04/05 09:43:31;;;;;;;11.13;8.23;;;9.10;99.90;;;7.42;100.00;99977.84;4993443;28;20062;-77
2022/04/05 09:46:04;;;;;;;9.87;8.50;;;8.00;99.90;;;7.43;100.00;99974.31;5008714;28;20046;-77
2022/04/05 09:48:35;;;;;;;9.90;8.23;;;8.70;99.90;;;7.45;100.00;99964.69;5005596;28;20033;-78
2022/04/05 09:51:21;;;;;;;11.40;8.77;;;7.90;99.90;;;7.49;100.00;99970.75;4990444;28;20050;-78
2022/04/05 09:53:57;;;;;;;10.85;8.68;;;9.10;99.90;;;7.68;100.00;99981.75;5004382;28;20042;-77
2022/04/05 09:56:33;;;;;;;12.45;8.23;;;10.30;99.90;;;7.63;100.00;99979.22;5005035;28;20053;-79
2022/04/05 09:59:14;;;;;;;12.07;8.18;;;8.20;99.90;;;7.68;100.00;99991.34;5004651;28;20078;-78
2022/04/05 10:01:41;;;;;;;11.18;8.25;;;8.10;99.90;;;7.64;100.00;100009.75;5004972;28;20068;-79
2022/04/05 10:04:12;;;;;;;14.05;9.18;;;8.70;99.90;;;7.69;100.00;99990.47;5004938;28;20085;-77
2022/04/05 10:06:46;;;;;;;14.50;9.32;;;8.20;99.90;;;7.75;100.00;99990.38;5004888;28;20048;-78
2022/04/05 10:09:16;;;;;;;10.40;8.98;;;9.80;99.90;;;7.78;100.00;100014.72;5016171;28;20673;-78
2022/04/05 10:11:44;;;;;;;;;;;8.50;99.90;;;7.86;100.00;100005.88;5010458;28;20081;-77
2022/04/05 10:14:20;;;;;;;11.63;9.20;;;7.80;99.90;;;7.91;100.00;100002.28;5012521;28;19925;-79
2022/04/05 10:16:49;;;;;;;11.82;8.45;;;8.30;99.90;;;7.97;100.00;100003.06;4998116;28;20157;-79
2022/04/05 10:19:17;;;;;;;11.32;7.65;;;9.70;99.90;;;7.91;100.00;100009.25;5016174;28;20049;-78
2022/04/05 10:21:45;;;;;;;12.73;8.13;;;10.50;99.90;;;7.86;100.00;99995.41;5014897;28;20057;-79
2022/04/05 10:24:12;;;;;;;12.50;8.07;;;8.50;99.90;;;7.82;100.00;99996.34;5016485;28;20127;-80
2022/04/05 10:26:45;;;;;;;10.88;7.97;;;8.40;99.90;;;7.83;100.00;99992.84;5033697;28;20073;-79
2022/04/05 10:29:18;;;;;;;11.20;8.75;;;8.80;99.90;;;7.87;100.00;99997.97;5006288;28;20048;-78
2022/04/05 10:31:58;;;;;;;11.55;7.85;;;9.60;99.90;;;7.90;100.00;99991.81;5016419;28;20092;-79
2022/04/05 10:34:27;;;;;;;12.25;8.75;;;9.10;99.90;;;7.93;100.00;99999.63;5013910;28;20470;-80